Saint Gertrude, Louisiana
Current Conditions -  °F | °C
As of 9:53 PM on Sunday 21 Dec 2014 (Local Time) from KASD Reporting Station
Haze Haze  
Wind Chill: 55°   Ceiling: 800
Heat Index: 55°   Visibility: 6mi
Dew Point: 52°   Wind: 0mph
Humidity: 89%   Direction: NA
Pressure: 29.98"   Gusts: NA
Location:  30.4598°N, 90.1271°W
Report Text: KASD 220353Z AUTO 00000KT 6SM BR OVC008 13/11 A2998 RMK AO2 SLP152 T01280111
Loading
Personal Weather Stations






























Interactive Weather Map New forecast layout! Learn more

10-Day Weather Forecast

Advertisements
Track Severe Weather on mobile